createdAt,value
2018-02-01T00:02:09.323Z,0.40
2018-02-01T00:04:36.818Z,0.40
2018-02-01T00:07:04.286Z,0.85
2018-02-01T00:09:31.773Z,0.65
2018-02-01T00:11:59.213Z,0.70
2018-02-01T00:14:27.048Z,0.40
2018-02-01T00:16:55.088Z,0.45
2018-02-01T00:19:22.973Z,0.62
2018-02-01T00:21:50.425Z,0.43
2018-02-01T00:24:17.850Z,0.82
2018-02-01T00:26:45.285Z,0.40
2018-02-01T00:29:12.738Z,0.40
2018-02-01T00:31:40.233Z,0.40
2018-02-01T00:34:07.649Z,0.50
2018-02-01T00:36:37.021Z,0.40
2018-02-01T00:39:04.462Z,0.82
2018-02-01T00:41:33.817Z,0.40
2018-02-01T00:44:01.265Z,0.40
2018-02-01T00:46:28.697Z,0.73
2018-02-01T00:48:57.335Z,0.68
2018-02-01T00:51:24.805Z,1.00
2018-02-01T00:53:52.645Z,0.57
2018-02-01T00:56:20.080Z,0.70
2018-02-01T00:58:47.537Z,0.50
2018-02-01T01:01:14.986Z,0.50
2018-02-01T01:03:42.465Z,0.47
2018-02-01T01:06:09.908Z,0.60
2018-02-01T01:08:37.868Z,0.50
2018-02-01T01:11:05.305Z,0.50
2018-02-01T01:13:33.612Z,0.50
2018-02-01T01:16:01.042Z,0.60
2018-02-01T01:18:28.481Z,0.40
2018-02-01T01:20:55.916Z,0.40
2018-02-01T01:23:23.561Z,0.50
2018-02-01T01:25:51.016Z,0.60
2018-02-01T01:28:19.326Z,0.55
2018-02-01T01:30:46.753Z,0.57
2018-02-01T01:33:16.129Z,0.50
2018-02-01T01:35:43.646Z,0.43
2018-02-01T01:38:12.363Z,0.47
2018-02-01T01:40:39.794Z,0.40
2018-02-01T01:43:09.565Z,0.47
2018-02-01T01:45:36.991Z,0.62
2018-02-01T01:48:06.360Z,0.40
2018-02-01T01:50:36.143Z,0.70
2018-02-01T01:53:03.576Z,0.45
2018-02-01T01:55:31.025Z,0.55
2018-02-01T01:57:58.782Z,0.73
2018-02-01T02:00:26.237Z,0.52
2018-02-01T02:02:53.661Z,0.80
2018-02-01T02:05:21.117Z,0.60
2018-02-01T02:07:49.291Z,0.50
2018-02-01T02:10:17.497Z,1.15
2018-02-01T02:12:44.912Z,0.60
2018-02-01T02:15:12.753Z,0.60
2018-02-01T02:17:40.189Z,0.45
2018-02-01T02:20:09.529Z,0.60
2018-02-01T02:22:37.602Z,0.50
2018-02-01T02:25:05.041Z,0.50
2018-02-01T02:27:32.469Z,0.40
2018-02-01T02:29:59.919Z,0.43
2018-02-01T02:32:27.346Z,0.47
2018-02-01T02:34:55.189Z,0.47
2018-02-01T02:37:22.626Z,0.65
2018-02-01T02:39:50.091Z,0.88
2018-02-01T02:42:17.515Z,0.50
2018-02-01T02:44:44.967Z,0.40
2018-02-01T02:47:12.395Z,0.45
2018-02-01T02:49:40.221Z,0.70
2018-02-01T02:52:08.511Z,0.40
2018-02-01T02:54:35.953Z,0.50
2018-02-01T02:57:03.438Z,0.60
2018-02-01T02:59:30.855Z,0.50
2018-02-01T03:01:58.293Z,0.77
2018-02-01T03:04:26.053Z,0.90
2018-02-01T03:06:53.492Z,0.73
2018-02-01T03:09:20.914Z,0.50
2018-02-01T03:11:48.368Z,0.50
2018-02-01T03:14:15.809Z,0.40
2018-02-01T03:16:43.244Z,0.50
2018-02-01T03:19:10.688Z,0.50
2018-02-01T03:21:39.040Z,0.98
2018-02-01T03:24:08.014Z,0.65
2018-02-01T03:26:35.461Z,0.60
2018-02-01T03:29:02.911Z,0.80
2018-02-01T03:31:30.350Z,0.70
2018-02-01T03:33:59.525Z,0.60
2018-02-01T03:36:26.966Z,0.60
2018-02-01T03:38:55.708Z,0.70
2018-02-01T03:41:23.157Z,0.60
2018-02-01T03:43:50.580Z,1.05
2018-02-01T03:46:19.739Z,0.93
2018-02-01T03:48:47.964Z,1.60
2018-02-01T03:51:15.393Z,1.25
2018-02-01T03:53:43.233Z,1.10
2018-02-01T03:56:10.773Z,1.00
2018-02-01T03:58:38.234Z,0.95
2018-02-01T04:01:07.608Z,1.25
2018-02-01T04:03:35.057Z,1.08
2018-02-01T04:06:03.388Z,0.90
2018-02-01T04:08:30.837Z,1.00
2018-02-01T04:10:58.277Z,1.17
2018-02-01T04:13:25.717Z,0.90
2018-02-01T04:15:53.163Z,0.98
2018-02-01T04:18:20.588Z,1.25
2018-02-01T04:20:48.744Z,1.05
2018-02-01T04:23:16.212Z,0.98
2018-02-01T04:25:43.682Z,1.15
2018-02-01T04:28:11.530Z,1.37
2018-02-01T04:30:40.870Z,1.15
2018-02-01T04:33:08.304Z,1.70
2018-02-01T04:35:36.136Z,1.27
2018-02-01T04:38:03.574Z,1.27
2018-02-01T04:40:31.019Z,1.37
2018-02-01T04:42:58.436Z,1.52
2018-02-01T04:45:27.816Z,1.00
2018-02-01T04:47:55.260Z,0.82
2018-02-01T04:50:22.695Z,1.30
2018-02-01T04:52:51.764Z,1.10
2018-02-01T04:55:19.217Z,1.10
2018-02-01T04:57:47.011Z,1.17
2018-02-01T05:00:14.453Z,1.15
2018-02-01T05:02:41.882Z,0.80
2018-02-01T05:05:09.709Z,1.08
2018-02-01T05:07:37.172Z,1.08
2018-02-01T05:10:04.601Z,1.40
2018-02-01T05:12:34.021Z,0.80
2018-02-01T05:15:01.455Z,1.95
2018-02-01T05:17:28.893Z,1.50
2018-02-01T05:19:57.217Z,0.85
2018-02-01T05:22:24.645Z,1.02
2018-02-01T05:24:52.081Z,1.37
2018-02-01T05:27:19.541Z,1.05
2018-02-01T05:29:46.974Z,1.30
2018-02-01T05:32:16.757Z,1.25
2018-02-01T05:34:44.192Z,1.05
2018-02-01T05:37:11.642Z,1.55
2018-02-01T05:39:39.078Z,1.35
2018-02-01T05:42:06.892Z,1.27
2018-02-01T05:44:34.334Z,1.27
2018-02-01T05:47:01.793Z,1.98
2018-02-01T05:49:30.816Z,1.37
2018-02-01T05:51:58.241Z,0.98
2018-02-01T05:54:25.688Z,1.75
2018-02-01T05:56:55.076Z,1.70
2018-02-01T05:59:22.501Z,1.73
2018-02-01T06:01:50.333Z,1.45
2018-02-01T06:04:17.789Z,1.73
2018-02-01T06:06:45.612Z,1.98
2018-02-01T06:09:14.052Z,2.40
2018-02-01T06:11:41.510Z,1.58
2018-02-01T06:14:08.924Z,1.40
2018-02-01T06:16:37.219Z,1.45
2018-02-01T06:19:07.801Z,1.30
2018-02-01T06:21:35.620Z,1.95
2018-02-01T06:24:03.089Z,1.20
2018-02-01T06:26:30.516Z,1.50
2018-02-01T06:28:58.873Z,1.23
2018-02-01T06:31:26.297Z,1.75
2018-02-01T06:33:56.070Z,1.83
2018-02-01T06:36:23.506Z,2.05
2018-02-01T06:38:50.956Z,2.12
2018-02-01T06:41:18.398Z,1.50
2018-02-01T06:43:47.151Z,2.30
2018-02-01T06:46:16.929Z,3.55
2018-02-01T06:48:44.357Z,2.28
2018-02-01T06:51:11.831Z,2.08
2018-02-01T06:53:39.256Z,2.58
2018-02-01T06:56:08.649Z,2.55
2018-02-01T06:58:36.075Z,2.60
2018-02-01T07:01:04.224Z,1.98
2018-02-01T07:03:32.564Z,1.90
2018-02-01T07:06:00.393Z,2.10
2018-02-01T07:08:27.824Z,5.43
2018-02-01T07:10:55.265Z,4.55
2018-02-01T07:13:22.704Z,6.85
2018-02-01T07:15:50.533Z,4.78
2018-02-01T07:18:17.961Z,4.75
2018-02-01T07:20:45.408Z,2.70
